Terminal Aerodrome Forecast
Issued by NWS

Home | Current Version | Previous Version | Text Only | Print | Product List | Glossary On
Versions: 1 2 3 4 5 6 7 8 9 10 11 12 13 14 15 16 17 18
087
FTUS46 KLOX 192349
TAFSBP
TAF
KSBP 192349Z 2000/2024 30020G30KT P6SM SCT040
     FM200200 32012KT P6SM FEW050
     FM200400 32006KT P6SM SKC
     FM200700 VRB03KT P6SM SKC
     FM202000 32011KT P6SM FEW040=

USA.gov is the U.S. government's official web portal to all federal, state and local government web resources and services.